Time;durP1;ratioP1;P1;durP2;ratioP2;P2;SDS_P1;SDS_P2;PMS_P1;PMS_P2;Temp;Humidity;BMP_temperature;BMP_pressure;BME280_temperature;BME280_humidity;BME280_pressure;Samples;Min_cycle;Max_cycle;Signal;HPM_P1;HPM_P2
2023/01/21 00:00:55;;;;;;;21.67;11.70;;;1.10;82.50;;;;;;5049276;28;20071;-70
2023/01/21 00:03:22;;;;;;;24.23;12.00;;;1.10;82.30;;;;;;5051752;28;20136;-69
2023/01/21 00:05:51;;;;;;;23.23;12.02;;;1.10;82.00;;;;;;5055977;28;20068;-70
2023/01/21 00:08:18;;;;;;;22.95;12.02;;;1.00;82.00;;;;;;5055766;28;20047;-70
2023/01/21 00:10:45;;;;;;;22.65;12.68;;;1.00;82.30;;;;;;5054601;28;20091;-69
2023/01/21 00:13:12;;;;;;;22.83;11.95;;;0.90;82.10;;;;;;5054796;28;20057;-68
2023/01/21 00:15:38;;;;;;;23.80;12.68;;;0.90;82.20;;;;;;5058450;28;20045;-69
2023/01/21 00:18:06;;;;;;;22.13;11.75;;;0.90;82.10;;;;;;5043024;28;20060;-69
2023/01/21 00:20:32;;;;;;;22.10;11.20;;;0.90;82.10;;;;;;5054576;28;20059;-70
2023/01/21 00:23:01;;;;;;;20.80;11.45;;;0.80;82.20;;;;;;5051010;28;20494;-70
2023/01/21 00:25:29;;;;;;;23.63;12.05;;;0.80;81.90;;;;;;5055566;28;20048;-70
2023/01/21 00:27:56;;;;;;;20.85;10.75;;;0.70;81.90;;;;;;5054776;28;20048;-69
2023/01/21 00:30:23;;;;;;;24.73;12.55;;;0.60;82.10;;;;;;5056886;28;20053;-70
2023/01/21 00:32:50;;;;;;;22.90;12.32;;;0.60;82.40;;;;;;5049690;28;20546;-68
2023/01/21 00:35:17;;;;;;;21.77;11.85;;;0.70;82.20;;;;;;5052739;28;20080;-68
2023/01/21 00:37:44;;;;;;;21.55;10.23;;;0.60;82.10;;;;;;5044955;28;20446;-68
2023/01/21 00:40:13;;;;;;;21.27;11.20;;;0.60;82.10;;;;;;5042538;28;21125;-69
2023/01/21 00:42:40;;;;;;;22.67;11.18;;;0.60;82.20;;;;;;5044223;28;20463;-68
2023/01/21 00:45:08;;;;;;;23.60;11.30;;;0.60;82.20;;;;;;5055590;28;20048;-69
2023/01/21 00:47:35;;;;;;;24.05;12.00;;;0.60;82.10;;;;;;5055181;28;20435;-69
2023/01/21 00:50:02;;;;;;;21.48;11.75;;;0.60;82.10;;;;;;5054019;28;20068;-69
2023/01/21 00:52:31;;;;;;;24.70;12.07;;;0.60;82.00;;;;;;5055908;28;20049;-68
2023/01/21 00:54:57;;;;;;;22.73;11.63;;;0.50;82.20;;;;;;5049149;28;20487;-69
2023/01/21 00:57:26;;;;;;;25.95;12.30;;;0.50;82.00;;;;;;5056775;28;20060;-69
2023/01/21 00:59:53;;;;;;;22.83;11.70;;;0.50;82.20;;;;;;5054257;28;20041;-68
2023/01/21 01:02:20;;;;;;;23.08;11.23;;;0.40;82.30;;;;;;5055505;28;20053;-69
2023/01/21 01:04:46;;;;;;;27.48;12.15;;;0.40;82.40;;;;;;5053723;28;20053;-70
2023/01/21 01:07:14;;;;;;;25.17;12.20;;;0.40;82.00;;;;;;5042933;28;20055;-69
2023/01/21 01:09:41;;;;;;;24.35;12.43;;;0.40;82.20;;;;;;5045190;28;20053;-69
2023/01/21 01:12:08;;;;;;;23.83;11.70;;;0.40;82.00;;;;;;5049644;28;20628;-69
2023/01/21 01:14:36;;;;;;;25.10;12.07;;;0.40;82.00;;;;;;5051117;28;20053;-69
2023/01/21 01:17:03;;;;;;;23.88;11.95;;;0.40;81.90;;;;;;5054042;28;20140;-69
2023/01/21 01:19:30;;;;;;;23.60;11.43;;;0.30;82.00;;;;;;5052275;28;20051;-69
2023/01/21 01:21:57;;;;;;;25.80;11.93;;;0.20;82.20;;;;;;5056599;28;20131;-69
2023/01/21 01:24:24;;;;;;;25.88;12.07;;;0.30;82.20;;;;;;5044002;28;20052;-70
2023/01/21 01:26:51;;;;;;;24.40;11.88;;;0.30;82.10;;;;;;5052317;28;20098;-72
2023/01/21 01:29:18;;;;;;;22.90;11.73;;;0.30;82.10;;;;;;5050319;28;20043;-69
2023/01/21 01:31:46;;;;;;;24.60;12.07;;;0.20;82.00;;;;;;5039159;28;20049;-70
2023/01/21 01:34:13;;;;;;;23.52;12.57;;;0.20;82.30;;;;;;5049273;28;20506;-70
2023/01/21 01:36:40;;;;;;;23.05;11.27;;;0.20;82.30;;;;;;5031027;28;20051;-70
2023/01/21 01:39:07;;;;;;;21.50;10.95;;;0.30;81.90;;;;;;5051307;28;20056;-69
2023/01/21 01:41:34;;;;;;;20.38;10.65;;;0.20;81.90;;;;;;5052699;28;20044;-70
2023/01/21 01:44:03;;;;;;;20.65;11.43;;;0.30;81.70;;;;;;5054507;28;20080;-70
2023/01/21 01:46:32;;;;;;;22.00;11.23;;;0.30;81.70;;;;;;5054054;28;20112;-60
2023/01/21 01:49:06;;;;;;;23.75;10.98;;;0.20;81.60;;;;;;5055135;28;20068;-60
2023/01/21 01:51:41;;;;;;;21.48;10.25;;;0.10;81.80;;;;;;5055579;28;20057;-59
2023/01/21 01:54:09;;;;;;;21.40;10.50;;;0.10;81.80;;;;;;5051732;28;20053;-61
2023/01/21 01:56:39;;;;;;;20.92;10.88;;;0.10;81.80;;;;;;5055614;28;20128;-64
2023/01/21 01:59:07;;;;;;;23.67;10.43;;;0.10;81.70;;;;;;5047161;28;20049;-65
2023/01/21 02:01:33;;;;;;;22.42;11.13;;;0.00;82.00;;;;;;5035540;28;20041;-61
2023/01/21 02:04:07;;;;;;;21.95;10.77;;;0.00;82.10;;;;;;5045946;28;20055;-59
2023/01/21 02:06:35;;;;;;;22.83;11.05;;;0.00;82.20;;;;;;5049382;28;20060;-61
2023/01/21 02:09:02;;;;;;;21.63;10.77;;;0.00;82.10;;;;;;5054022;28;20060;-59
2023/01/21 02:11:29;;;;;;;21.30;11.70;;;0.00;82.00;;;;;;5052148;28;20541;-61
2023/01/21 02:13:58;;;;;;;23.88;10.55;;;0.00;82.20;;;;;;5056611;28;20060;-60
2023/01/21 02:16:52;;;;;;;19.80;9.90;;;0.00;82.20;;;;;;5048079;28;20041;-60
2023/01/21 02:19:58;;;;;;;24.23;10.77;;;0.00;82.30;;;;;;5048468;28;20045;-60
2023/01/21 02:22:33;;;;;;;23.08;11.10;;;0.00;82.10;;;;;;5046953;28;20052;-60
2023/01/21 02:25:46;;;;;;;22.42;11.07;;;0.00;82.10;;;;;;5043238;28;20053;-62
2023/01/21 02:28:44;;;;;;;20.65;10.23;;;0.00;82.20;;;;;;5055549;28;20053;-69
2023/01/21 02:31:44;;;;;;;21.02;9.70;;;-3276.70;82.20;;;;;;5054657;28;20048;-60
2023/01/21 02:34:28;;;;;;;21.10;10.15;;;-3276.70;82.30;;;;;;5055519;28;20136;-63
2023/01/21 02:37:05;;;;;;;22.52;10.40;;;-3276.70;82.40;;;;;;5053559;28;20114;-60
2023/01/21 02:39:58;;;;;;;20.80;10.90;;;0.00;82.30;;;;;;5056009;28;20049;-60
2023/01/21 02:42:32;;;;;;;21.88;10.45;;;0.00;82.20;;;;;;5052284;28;20053;-62
2023/01/21 02:45:09;;;;;;;20.05;10.05;;;-3276.70;82.20;;;;;;5041194;28;20436;-60
2023/01/21 02:47:43;;;;;;;22.33;11.20;;;-3276.70;82.30;;;;;;5054937;28;20471;-59
2023/01/21 02:50:15;;;;;;;22.77;10.73;;;-3276.60;82.20;;;;;;5047165;28;20056;-60
2023/01/21 02:52:42;;;;;;;19.02;10.07;;;-3276.70;82.30;;;;;;5054519;28;20241;-61
2023/01/21 02:55:14;;;;;;;20.70;10.60;;;-3276.70;82.20;;;;;;5053315;28;20415;-59
2023/01/21 02:57:45;;;;;;;21.90;10.93;;;-3276.60;82.10;;;;;;5053553;28;20056;-60
2023/01/21 03:00:16;;;;;;;22.90;11.00;;;-3276.60;82.10;;;;;;5053812;28;20061;-61
2023/01/21 03:03:04;;;;;;;19.33;10.50;;;-3276.60;81.90;;;;;;5045752;28;20136;-60
2023/01/21 03:05:48;;;;;;;20.35;10.32;;;-3276.60;82.00;;;;;;5054194;28;20041;-60
2023/01/21 03:08:20;;;;;;;20.75;10.50;;;-3276.60;82.00;;;;;;5057100;28;20128;-60
2023/01/21 03:10:56;;;;;;;16.55;9.63;;;-3276.60;81.90;;;;;;5055526;28;20487;-60
2023/01/21 03:19:05;;;;;;;21.70;10.68;;;-3276.50;82.00;;;;;;5056667;28;20103;-61
2023/01/21 03:21:34;;;;;;;;;;;-3276.50;82.00;;;;;;5047779;28;20052;-71
2023/01/21 03:24:02;;;;;;;22.85;10.23;;;-3276.40;82.10;;;;;;5052071;28;19924;-69
2023/01/21 03:26:36;;;;;;;21.85;11.02;;;-3276.40;82.10;;;;;;5056758;28;20056;-64
2023/01/21 03:29:09;;;;;;;24.85;11.13;;;-3276.40;82.10;;;;;;5054217;28;20057;-66
2023/01/21 03:31:39;;;;;;;23.40;11.45;;;-3276.40;82.10;;;;;;5057614;28;20045;-70
2023/01/21 03:34:10;;;;;;;19.27;9.93;;;-3276.40;82.00;;;;;;5048947;28;20057;-72
2023/01/21 03:36:44;;;;;;;25.27;10.50;;;-3276.40;81.90;;;;;;5043652;28;20109;-70
2023/01/21 03:39:18;;;;;;;21.80;10.50;;;-3276.40;81.80;;;;;;5053047;28;20122;-71
2023/01/21 03:41:45;;;;;;;23.55;11.35;;;-3276.40;81.90;;;;;;5045002;28;20061;-70
2023/01/21 03:44:13;;;;;;;22.70;10.98;;;-3276.30;81.90;;;;;;5044756;28;20040;-69
2023/01/21 03:46:50;;;;;;;23.23;11.05;;;-3276.20;81.90;;;;;;5057222;28;20120;-61
2023/01/21 03:49:21;;;;;;;20.50;11.05;;;-3276.20;82.10;;;;;;5057074;28;20057;-60
2023/01/21 03:51:53;;;;;;;18.73;10.07;;;-3276.20;82.30;;;;;;5056127;28;20048;-61
2023/01/21 03:54:19;;;;;;;21.30;11.65;;;-3276.20;82.30;;;;;;5050567;28;21760;-61
2023/01/21 03:56:46;;;;;;;21.85;10.98;;;-3276.20;82.20;;;;;;5054178;28;20122;-61
2023/01/21 03:59:13;;;;;;;24.30;10.93;;;-3276.20;82.20;;;;;;5056370;28;20044;-60
2023/01/21 04:01:40;;;;;;;22.50;10.60;;;-3276.20;82.10;;;;;;5054329;28;20053;-60
2023/01/21 04:04:08;;;;;;;23.33;10.35;;;-3276.20;82.10;;;;;;5057181;28;20060;-59
2023/01/21 04:06:35;;;;;;;21.25;10.40;;;-3276.30;81.90;;;;;;5047021;28;20044;-61
2023/01/21 04:09:04;;;;;;;19.55;9.10;;;-3276.20;81.80;;;;;;5053250;28;20060;-60
2023/01/21 04:11:37;;;;;;;20.38;9.73;;;-3276.20;81.90;;;;;;5056913;28;20141;-60
2023/01/21 04:14:05;;;;;;;21.25;10.00;;;-3276.10;81.90;;;;;;5055400;28;20047;-58
2023/01/21 04:16:32;;;;;;;17.80;9.60;;;-3276.10;82.00;;;;;;5056442;28;20414;-58
2023/01/21 04:18:59;;;;;;;18.60;9.60;;;-3276.10;82.00;;;;;;5054042;28;20049;-59
2023/01/21 04:21:26;;;;;;;20.75;11.07;;;-3276.10;82.00;;;;;;5053972;28;20063;-60
2023/01/21 04:23:57;;;;;;;21.42;10.93;;;-3276.10;82.00;;;;;;5056904;28;20067;-60
2023/01/21 04:26:25;;;;;;;21.85;10.00;;;-3276.10;82.00;;;;;;5053114;28;20045;-60
2023/01/21 04:28:52;;;;;;;22.27;10.07;;;-3276.10;82.00;;;;;;5057758;28;20063;-59
2023/01/21 04:31:19;;;;;;;18.83;9.77;;;-3276.10;82.00;;;;;;5056614;28;20512;-60
2023/01/21 04:33:45;;;;;;;25.15;10.02;;;-3276.10;82.00;;;;;;5056550;28;20047;-61
2023/01/21 04:36:13;;;;;;;20.80;9.60;;;-3276.00;82.10;;;;;;5054991;28;20725;-62
2023/01/21 04:38:40;;;;;;;20.40;10.35;;;-3276.00;82.10;;;;;;5057530;28;20084;-62
2023/01/21 04:41:07;;;;;;;21.85;10.40;;;-3276.00;82.30;;;;;;5056428;28;20052;-60
2023/01/21 04:43:35;;;;;;;21.10;10.52;;;-3276.00;82.50;;;;;;5047772;28;20049;-60
2023/01/21 04:46:03;;;;;;;20.13;10.02;;;-3276.00;82.60;;;;;;5047974;28;20395;-71
2023/01/21 04:48:30;;;;;;;21.60;10.30;;;-3276.00;82.70;;;;;;5049561;28;20052;-72
2023/01/21 04:50:57;;;;;;;19.58;10.45;;;-3276.00;82.90;;;;;;5056801;28;20048;-62
2023/01/21 04:53:24;;;;;;;21.42;10.40;;;-3276.00;82.90;;;;;;5056203;28;20060;-61
2023/01/21 04:55:52;;;;;;;20.88;10.20;;;-3276.10;82.90;;;;;;5046040;28;20503;-62
2023/01/21 04:58:19;;;;;;;21.65;10.40;;;-3276.10;83.10;;;;;;5043695;28;20065;-60
2023/01/21 05:00:47;;;;;;;21.50;10.85;;;-3276.10;83.10;;;;;;5034887;28;20057;-59
2023/01/21 05:03:14;;;;;;;25.23;11.93;;;-3276.10;83.00;;;;;;5047825;28;20056;-58
2023/01/21 05:05:41;;;;;;;22.73;10.60;;;-3276.10;83.10;;;;;;5051809;28;20662;-60
2023/01/21 05:08:08;;;;;;;23.75;10.93;;;-3276.00;83.10;;;;;;5051174;28;20041;-61
2023/01/21 05:10:35;;;;;;;23.15;10.93;;;-3276.10;83.20;;;;;;5049389;28;20442;-61
2023/01/21 05:13:02;;;;;;;22.77;11.02;;;-3276.10;83.10;;;;;;5053644;28;20396;-60
2023/01/21 05:15:31;;;;;;;22.27;10.95;;;-3276.10;83.10;;;;;;5055306;28;20037;-61
2023/01/21 05:18:00;;;;;;;18.92;9.93;;;-3276.10;83.10;;;;;;5052338;28;20053;-60
2023/01/21 05:20:27;;;;;;;23.70;11.45;;;-3276.10;82.90;;;;;;5051808;28;20055;-62
2023/01/21 05:22:54;;;;;;;22.02;10.88;;;-3276.00;82.80;;;;;;5055191;28;20603;-60
2023/01/21 05:25:24;;;;;;;19.75;10.27;;;-3276.10;82.90;;;;;;5051870;28;20258;-62
2023/01/21 05:27:52;;;;;;;23.08;10.65;;;-3276.00;82.90;;;;;;5051362;28;20111;-72
2023/01/21 05:30:20;;;;;;;20.95;10.65;;;-3276.00;82.80;;;;;;5051153;28;20052;-71
2023/01/21 05:32:50;;;;;;;23.30;10.80;;;-3276.00;82.80;;;;;;5053917;28;20483;-71
2023/01/21 05:35:19;;;;;;;21.17;10.90;;;-3276.00;82.90;;;;;;5052711;28;20048;-73
2023/01/21 05:37:46;;;;;;;21.77;10.15;;;-3276.00;83.00;;;;;;5055763;28;20124;-72
2023/01/21 05:40:14;;;;;;;20.67;10.07;;;-3276.00;83.00;;;;;;5048012;28;20056;-71
2023/01/21 05:42:42;;;;;;;22.42;10.82;;;-3276.00;83.10;;;;;;5050588;28;20049;-71
2023/01/21 05:45:10;;;;;;;22.05;10.30;;;-3276.00;83.20;;;;;;5051453;28;20407;-70
2023/01/21 05:47:37;;;;;;;23.10;10.20;;;-3276.00;83.20;;;;;;5057219;28;20041;-72
2023/01/21 05:50:05;;;;;;;23.77;10.63;;;-3276.00;83.40;;;;;;5045580;28;20053;-72
2023/01/21 05:52:33;;;;;;;22.80;11.10;;;-3276.10;83.30;;;;;;5057090;28;20067;-64
2023/01/21 05:55:00;;;;;;;22.25;11.48;;;-3276.00;83.50;;;;;;5050260;28;20521;-64
2023/01/21 05:57:34;;;;;;;22.48;10.35;;;-3276.00;83.50;;;;;;5050734;28;20052;-59
2023/01/21 06:00:01;;;;;;;22.23;11.25;;;-3276.00;83.40;;;;;;5048593;28;20048;-60
2023/01/21 06:02:27;;;;;;;21.52;10.55;;;-3276.00;83.30;;;;;;5046721;28;20044;-72
2023/01/21 06:04:54;;;;;;;23.98;10.32;;;-3276.00;83.50;;;;;;5046257;28;20061;-72
2023/01/21 06:07:21;;;;;;;24.95;11.70;;;-3276.00;83.50;;;;;;5047764;28;20046;-60
2023/01/21 06:09:49;;;;;;;22.83;11.43;;;-3276.00;83.40;;;;;;5052969;28;20033;-60
2023/01/21 06:12:16;;;;;;;25.35;11.27;;;-3276.00;83.30;;;;;;5048768;28;20045;-58
2023/01/21 06:14:44;;;;;;;22.50;10.20;;;-3276.00;83.30;;;;;;5053275;28;20076;-59
2023/01/21 06:17:10;;;;;;;24.73;11.27;;;-3276.00;83.20;;;;;;5049729;28;20044;-58
2023/01/21 06:19:37;;;;;;;20.88;9.95;;;-3276.00;83.00;;;;;;5048776;28;20056;-58
2023/01/21 06:22:04;;;;;;;21.52;11.38;;;-3275.90;82.70;;;;;;5049943;28;20048;-60
2023/01/21 06:24:31;;;;;;;23.83;10.40;;;-3275.90;82.70;;;;;;5050510;28;20064;-61
2023/01/21 06:26:59;;;;;;;21.80;10.45;;;-3275.90;82.80;;;;;;5049817;28;20114;-61
2023/01/21 06:29:26;;;;;;;24.95;11.88;;;-3275.90;82.70;;;;;;5049238;28;20067;-60
2023/01/21 06:31:53;;;;;;;20.67;10.68;;;-3275.80;82.60;;;;;;5048816;28;20061;-65
2023/01/21 06:34:20;;;;;;;19.70;11.02;;;-3275.90;82.60;;;;;;5048325;28;20499;-65
2023/01/21 06:36:46;;;;;;;20.60;9.80;;;-3275.90;82.60;;;;;;5050986;28;20083;-65
2023/01/21 06:39:13;;;;;;;24.80;10.98;;;-3275.90;82.70;;;;;;5048428;28;20064;-68
2023/01/21 06:41:40;;;;;;;22.40;10.90;;;-3275.80;82.70;;;;;;5049699;28;20111;-65
2023/01/21 06:44:08;;;;;;;21.27;11.35;;;-3275.90;82.60;;;;;;5054335;28;20044;-64
2023/01/21 06:46:35;;;;;;;22.25;10.70;;;-3275.90;82.60;;;;;;5051209;28;20110;-60
2023/01/21 06:49:02;;;;;;;23.90;10.93;;;-3275.90;82.60;;;;;;5054168;28;20056;-62
2023/01/21 06:51:29;;;;;;;23.73;10.98;;;-3275.90;82.60;;;;;;5047864;28;20054;-64
2023/01/21 06:53:56;;;;;;;21.83;11.15;;;-3275.90;82.60;;;;;;5054240;28;20051;-65
2023/01/21 06:56:23;;;;;;;23.67;11.10;;;-3275.80;82.80;;;;;;5052175;28;20044;-65
2023/01/21 06:58:50;;;;;;;23.52;10.90;;;-3275.80;82.90;;;;;;5055326;28;20126;-65
2023/01/21 07:01:18;;;;;;;23.35;11.65;;;-3275.90;83.00;;;;;;5054190;28;20067;-61
2023/01/21 07:03:45;;;;;;;18.95;9.80;;;-3275.90;82.90;;;;;;5047786;28;20420;-59
2023/01/21 07:06:12;;;;;;;23.33;11.35;;;-3275.90;82.80;;;;;;5050094;28;20041;-70
2023/01/21 07:08:39;;;;;;;22.88;10.75;;;-3275.80;83.00;;;;;;5041368;28;20803;-72
2023/01/21 07:11:06;;;;;;;22.05;11.02;;;-3275.80;83.20;;;;;;5063741;28;20147;-70
2023/01/21 07:13:33;;;;;;;24.45;11.45;;;-3275.90;83.10;;;;;;5054390;28;20491;-70
2023/01/21 07:16:01;;;;;;;23.98;11.45;;;-3275.90;83.10;;;;;;5052018;28;20059;-71
2023/01/21 07:18:29;;;;;;;24.45;11.80;;;-3275.90;83.10;;;;;;5052550;28;20091;-70
2023/01/21 07:20:57;;;;;;;22.15;10.48;;;-3275.90;83.30;;;;;;5050909;28;20484;-73
2023/01/21 07:23:24;;;;;;;26.98;12.07;;;-3275.90;83.40;;;;;;5054144;28;20044;-72
2023/01/21 07:25:51;;;;;;;25.77;12.15;;;-3275.90;83.30;;;;;;5051272;28;20474;-58
2023/01/21 07:28:18;;;;;;;23.80;11.68;;;-3275.90;83.40;;;;;;5050269;28;20049;-58
2023/01/21 07:30:46;;;;;;;22.45;11.20;;;-3275.90;83.40;;;;;;5054263;28;20136;-59
2023/01/21 07:33:14;;;;;;;20.50;11.23;;;-3275.90;83.30;;;;;;5051345;28;20059;-61
2023/01/21 07:35:42;;;;;;;22.83;10.80;;;-3275.90;83.40;;;;;;5055739;28;20052;-58
2023/01/21 07:38:09;;;;;;;21.88;10.32;;;-3275.90;83.50;;;;;;5050463;28;20041;-59
2023/01/21 07:40:36;;;;;;;23.17;11.45;;;-3275.90;83.50;;;;;;5050209;28;20466;-61
2023/01/21 07:43:04;;;;;;;22.10;11.18;;;-3276.00;83.40;;;;;;5064861;28;20471;-59
2023/01/21 07:45:31;;;;;;;24.13;12.23;;;-3275.90;83.50;;;;;;5054745;28;20384;-71
2023/01/21 07:47:58;;;;;;;22.27;11.73;;;-3276.00;83.40;;;;;;5053013;28;20037;-71
2023/01/21 07:50:25;;;;;;;25.40;11.43;;;-3276.00;83.30;;;;;;5053172;28;20131;-72
2023/01/21 07:52:54;;;;;;;23.50;11.48;;;-3276.00;83.30;;;;;;5051903;28;20053;-68
2023/01/21 07:55:21;;;;;;;23.05;11.07;;;-3276.10;83.30;;;;;;5050989;28;20037;-69
2023/01/21 07:57:48;;;;;;;24.10;11.77;;;-3276.00;83.40;;;;;;5051923;28;20041;-70
2023/01/21 08:00:16;;;;;;;23.83;11.70;;;-3276.00;83.50;;;;;;5051406;28;20044;-70
2023/01/21 08:02:43;;;;;;;24.08;12.00;;;-3276.00;83.60;;;;;;5052598;28;20408;-72
2023/01/21 08:05:10;;;;;;;28.27;11.82;;;-3275.90;83.70;;;;;;5051849;28;20057;-70
2023/01/21 08:07:37;;;;;;;24.35;12.38;;;-3276.00;83.90;;;;;;5050146;28;20048;-70
2023/01/21 08:10:06;;;;;;;28.20;12.57;;;-3276.00;84.00;;;;;;5054835;28;20053;-71
2023/01/21 08:12:33;;;;;;;24.75;12.10;;;-3276.00;84.00;;;;;;5054561;28;20097;-70
2023/01/21 08:15:00;;;;;;;24.58;12.48;;;-3276.00;84.00;;;;;;5053585;28;20055;-70
2023/01/21 08:17:31;;;;;;;26.08;12.75;;;-3276.10;84.10;;;;;;5049973;28;20082;-69
2023/01/21 08:19:58;;;;;;;29.38;13.10;;;-3276.10;84.20;;;;;;5049404;28;20040;-72
2023/01/21 08:22:25;;;;;;;26.13;12.85;;;-3276.10;84.40;;;;;;5055857;28;20128;-70
2023/01/21 08:24:52;;;;;;;29.30;14.20;;;-3276.10;84.70;;;;;;5050563;28;20057;-70
2023/01/21 08:27:20;;;;;;;26.83;12.60;;;-3276.10;84.80;;;;;;5050897;28;20073;-60
2023/01/21 08:29:48;;;;;;;24.05;12.93;;;-3276.10;84.80;;;;;;5048735;28;20051;-60
2023/01/21 08:32:14;;;;;;;27.90;13.57;;;-3276.20;85.00;;;;;;5053135;28;20053;-59
2023/01/21 08:34:42;;;;;;;26.55;12.48;;;-3276.20;84.90;;;;;;5049472;28;20044;-60
2023/01/21 08:37:09;;;;;;;24.52;11.98;;;-3276.20;84.90;;;;;;5049570;28;20094;-65
2023/01/21 08:39:36;;;;;;;30.13;13.10;;;-3276.30;85.00;;;;;;5050797;28;20067;-64
2023/01/21 08:42:03;;;;;;;24.30;12.70;;;-3276.20;85.00;;;;;;5052550;28;20047;-64
2023/01/21 08:44:31;;;;;;;23.85;11.93;;;-3276.30;85.00;;;;;;5056013;28;20052;-64
2023/01/21 08:46:58;;;;;;;27.85;13.77;;;-3276.30;85.00;;;;;;5050509;28;20076;-64
2023/01/21 08:49:25;;;;;;;26.85;13.68;;;-3276.40;84.90;;;;;;5050189;28;20045;-66
2023/01/21 08:51:52;;;;;;;26.25;13.38;;;-3276.40;85.00;;;;;;5055098;28;20514;-64
2023/01/21 08:54:19;;;;;;;27.70;13.07;;;-3276.40;84.90;;;;;;5055355;28;20060;-63
2023/01/21 08:56:46;;;;;;;27.13;13.65;;;-3276.40;84.90;;;;;;5050718;28;20131;-64
2023/01/21 08:59:13;;;;;;;33.03;15.48;;;-3276.50;85.10;;;;;;5051215;28;20045;-65
2023/01/21 09:01:42;;;;;;;32.88;15.10;;;-3276.60;84.90;;;;;;5049673;28;20059;-61
2023/01/21 09:04:09;;;;;;;32.40;16.30;;;-3276.60;84.90;;;;;;5052907;28;20056;-61
2023/01/21 09:06:36;;;;;;;30.58;15.70;;;-3276.70;84.90;;;;;;5051740;28;20067;-61
2023/01/21 09:09:03;;;;;;;27.05;12.85;;;0.00;84.40;;;;;;5049565;28;20510;-60
2023/01/21 09:11:31;;;;;;;20.40;10.52;;;0.00;84.30;;;;;;5055977;28;20037;-60
2023/01/21 09:14:02;;;;;;;16.02;8.50;;;0.00;84.10;;;;;;5051398;28;20048;-61
2023/01/21 09:16:30;;;;;;;18.25;8.52;;;0.00;84.20;;;;;;5046938;28;20410;-60
2023/01/21 09:18:59;;;;;;;16.55;8.05;;;0.00;84.30;;;;;;5048932;28;20581;-60
2023/01/21 09:21:28;;;;;;;16.25;7.88;;;0.00;84.10;;;;;;5050684;28;20052;-71
2023/01/21 09:23:55;;;;;;;15.77;7.10;;;0.00;83.90;;;;;;5036768;28;20479;-70
2023/01/21 09:26:24;;;;;;;15.70;7.68;;;0.00;83.60;;;;;;5044067;28;20141;-70
2023/01/21 09:28:53;;;;;;;14.20;7.53;;;0.00;83.60;;;;;;5048956;28;20082;-70
2023/01/21 09:31:23;;;;;;;17.97;7.70;;;0.00;83.50;;;;;;5051913;28;20041;-70
2023/01/21 09:33:52;;;;;;;16.88;8.07;;;0.00;83.40;;;;;;5046589;28;20071;-69
2023/01/21 09:36:22;;;;;;;16.23;7.07;;;0.00;83.60;;;;;;5046424;28;20167;-58
2023/01/21 09:38:50;;;;;;;16.52;8.10;;;0.00;83.50;;;;;;5054292;28;20044;-60
2023/01/21 09:41:27;;;;;;;17.48;8.15;;;0.00;83.50;;;;;;5047006;28;20052;-58
2023/01/21 09:44:00;;;;;;;15.68;8.15;;;0.00;83.40;;;;;;5051376;28;20052;-58
2023/01/21 09:46:38;;;;;;;17.00;7.82;;;0.00;83.70;;;;;;5049876;28;20048;-58
2023/01/21 09:49:11;;;;;;;20.98;8.77;;;0.00;83.50;;;;;;5048438;28;20057;-58
2023/01/21 09:51:47;;;;;;;17.15;8.27;;;0.00;83.50;;;;;;5048161;28;20049;-61
2023/01/21 09:54:20;;;;;;;18.80;7.82;;;0.10;83.50;;;;;;5054612;28;20045;-61
2023/01/21 09:57:10;;;;;;;17.48;9.13;;;0.10;83.40;;;;;;5054366;28;20040;-59
2023/01/21 09:59:46;;;;;;;25.48;10.88;;;0.10;83.50;;;;;;5048373;28;20060;-61
2023/01/21 10:02:22;;;;;;;22.63;9.77;;;0.10;83.50;;;;;;5047384;28;20045;-61
2023/01/21 10:05:05;;;;;;;20.27;8.80;;;0.10;83.50;;;;;;5048501;28;20086;-60
2023/01/21 10:07:39;;;;;;;19.17;8.48;;;0.10;83.40;;;;;;5039066;28;20143;-61
2023/01/21 10:10:17;;;;;;;14.82;7.85;;;0.10;83.30;;;;;;5046299;28;20048;-59
2023/01/21 10:13:02;;;;;;;16.85;7.97;;;0.20;83.20;;;;;;5052798;28;20302;-61
2023/01/21 10:15:43;;;;;;;15.57;7.93;;;0.20;83.20;;;;;;5054630;28;20049;-62
2023/01/21 10:18:15;;;;;;;15.07;7.45;;;0.20;83.00;;;;;;5052189;28;20056;-59
2023/01/21 10:20:48;;;;;;;17.10;7.90;;;0.20;83.00;;;;;;5053682;28;20068;-69
2023/01/21 10:23:20;;;;;;;14.02;7.30;;;0.20;83.00;;;;;;5056763;28;20257;-68
2023/01/21 10:25:48;;;;;;;17.40;7.95;;;0.20;82.90;;;;;;5058221;28;20124;-62
2023/01/21 10:28:22;;;;;;;17.70;8.40;;;0.30;82.90;;;;;;5055182;28;20207;-62
2023/01/21 10:30:51;;;;;;;17.08;8.63;;;0.30;82.90;;;;;;5056369;28;20049;-58
2023/01/21 10:33:21;;;;;;;16.27;7.97;;;0.30;82.90;;;;;;5051376;28;20074;-57
2023/01/21 10:36:07;;;;;;;17.05;8.48;;;0.30;82.90;;;;;;5055846;28;20051;-59
2023/01/21 10:38:41;;;;;;;15.02;7.13;;;0.30;82.70;;;;;;5058255;28;21253;-58
2023/01/21 10:41:26;;;;;;;14.15;7.50;;;0.30;82.70;;;;;;5058273;28;20136;-64
2023/01/21 10:44:00;;;;;;;15.30;7.57;;;0.30;82.60;;;;;;5059200;28;20048;-64
2023/01/21 10:46:37;;;;;;;16.00;7.25;;;0.40;82.60;;;;;;5060470;28;20045;-64
2023/01/21 10:49:15;;;;;;;17.42;7.88;;;0.40;82.60;;;;;;5059713;28;20060;-68
2023/01/21 10:51:48;;;;;;;16.83;7.85;;;0.40;82.60;;;;;;5057416;28;20041;-59
2023/01/21 10:54:24;;;;;;;16.10;7.95;;;0.40;82.40;;;;;;5058625;28;20053;-58
2023/01/21 10:56:58;;;;;;;14.73;7.00;;;0.50;82.50;;;;;;5060397;28;20057;-64
2023/01/21 10:59:28;;;;;;;16.08;7.43;;;0.50;82.50;;;;;;5057572;28;20041;-66
2023/01/21 11:02:05;;;;;;;16.90;6.97;;;0.50;82.40;;;;;;5055553;28;20053;-70
2023/01/21 11:04:35;;;;;;;15.07;7.60;;;0.50;82.40;;;;;;5056814;28;20076;-70
2023/01/21 11:07:05;;;;;;;15.43;6.95;;;0.50;82.40;;;;;;5050524;28;20407;-59
2023/01/21 11:09:38;;;;;;;12.30;6.85;;;0.60;82.40;;;;;;5058100;28;20044;-61
2023/01/21 11:12:09;;;;;;;16.75;6.80;;;0.60;82.30;;;;;;5055078;28;20077;-60
2023/01/21 11:14:36;;;;;;;14.85;6.93;;;0.50;82.20;;;;;;5057331;28;20490;-61
2023/01/21 11:17:04;;;;;;;12.25;6.47;;;0.60;82.10;;;;;;5058187;28;20129;-59
2023/01/21 11:19:31;;;;;;;16.15;6.95;;;0.60;82.20;;;;;;5058277;28;20076;-61
2023/01/21 11:22:02;;;;;;;15.63;6.80;;;0.60;82.20;;;;;;5057524;28;20052;-60
2023/01/21 11:24:31;;;;;;;13.65;7.07;;;0.60;82.00;;;;;;5057364;28;20123;-60
2023/01/21 11:27:01;;;;;;;14.98;7.15;;;0.60;82.00;;;;;;5055604;28;20053;-60
2023/01/21 11:29:40;;;;;;;13.60;6.40;;;0.60;82.00;;;;;;5050766;28;20041;-60
2023/01/21 11:32:17;;;;;;;14.63;6.97;;;0.60;82.10;;;;;;5047078;28;20090;-60
2023/01/21 11:34:46;;;;;;;13.18;6.50;;;0.60;82.10;;;;;;5046059;28;20065;-60
2023/01/21 11:37:23;;;;;;;13.95;6.65;;;0.60;81.80;;;;;;5047294;28;20074;-59
2023/01/21 11:39:53;;;;;;;13.77;6.90;;;0.60;81.90;;;;;;5052810;28;20037;-61
2023/01/21 11:42:22;;;;;;;13.35;6.93;;;0.60;81.90;;;;;;5058144;28;20088;-60
2023/01/21 11:44:54;;;;;;;14.45;6.70;;;0.60;81.80;;;;;;5059974;28;20063;-60
2023/01/21 11:47:37;;;;;;;14.93;7.55;;;0.60;81.70;;;;;;5057018;28;20055;-60
2023/01/21 11:50:12;;;;;;;14.43;7.20;;;0.70;81.50;;;;;;5057482;28;20052;-61
2023/01/21 11:52:39;;;;;;;13.65;6.72;;;0.60;81.60;;;;;;5057682;28;20063;-60
2023/01/21 11:55:19;;;;;;;12.45;6.10;;;0.70;81.50;;;;;;5056615;28;20052;-59
2023/01/21 11:57:52;;;;;;;15.23;6.55;;;0.70;81.30;;;;;;5056358;28;20061;-71
2023/01/21 12:00:21;;;;;;;12.88;6.40;;;0.70;81.20;;;;;;5056100;28;20060;-72
2023/01/21 12:02:51;;;;;;;12.27;6.60;;;0.70;81.40;;;;;;5055829;28;20143;-72
2023/01/21 12:05:30;;;;;;;15.57;7.28;;;0.80;81.30;;;;;;5046962;28;20144;-64
2023/01/21 12:07:59;;;;;;;14.50;7.00;;;0.80;81.10;;;;;;5056924;28;20044;-64
2023/01/21 12:10:32;;;;;;;14.60;7.05;;;0.90;81.10;;;;;;5054459;28;20530;-64
2023/01/21 12:13:20;;;;;;;18.70;8.15;;;0.90;81.00;;;;;;5058607;28;20045;-64
2023/01/21 12:16:17;;;;;;;14.27;7.88;;;1.00;80.70;;;;;;5054507;28;20049;-71
2023/01/21 12:19:06;;;;;;;12.88;7.25;;;1.20;80.60;;;;;;5049409;28;20059;-72
2023/01/21 12:21:46;;;;;;;15.13;6.80;;;1.20;80.60;;;;;;5056086;28;20047;-61
2023/01/21 12:24:25;;;;;;;12.20;6.20;;;1.20;80.30;;;;;;5055383;28;20049;-60
2023/01/21 12:27:00;;;;;;;14.88;7.15;;;1.20;80.20;;;;;;5057967;28;20060;-62
2023/01/21 12:29:46;;;;;;;10.88;5.63;;;1.20;80.10;;;;;;5057804;28;20051;-60
2023/01/21 12:32:20;;;;;;;11.20;5.72;;;1.30;79.90;;;;;;5055888;28;20080;-60
2023/01/21 12:34:51;;;;;;;12.45;5.65;;;1.20;80.00;;;;;;5057443;28;20673;-60
2023/01/21 12:37:24;;;;;;;12.00;5.82;;;1.30;80.00;;;;;;5054486;28;20037;-59
2023/01/21 12:39:54;;;;;;;14.75;5.72;;;1.30;79.90;;;;;;5056202;28;20065;-60
2023/01/21 12:42:26;;;;;;;11.05;5.18;;;1.30;79.90;;;;;;5057328;28;20079;-60